Time;durP1;ratioP1;P1;durP2;ratioP2;P2;SDS_P1;SDS_P2;PMS_P1;PMS_P2;Temp;Humidity;BMP_temperature;BMP_pressure;BME280_temperature;BME280_humidity;BME280_pressure;Samples;Min_cycle;Max_cycle;Signal;HPM_P1;HPM_P2
2023/05/02 00:02:05;;;;;;;9.40;8.83;;;;;;;9.84;100.00;101479.53;5036545;28;20771;-42
2023/05/02 00:04:34;;;;;;;8.90;8.43;;;;;;;9.71;100.00;101468.59;5037146;28;20527;-48
2023/05/02 00:07:02;;;;;;;11.50;10.53;;;;;;;9.72;100.00;101482.75;5036905;28;20460;-45
2023/05/02 00:09:30;;;;;;;10.30;9.80;;;;;;;9.58;100.00;101475.50;5036580;28;21162;-44
2023/05/02 00:11:57;;;;;;;12.03;11.17;;;;;;;9.24;100.00;101481.09;5037250;28;20483;-47
2023/05/02 00:14:25;;;;;;;12.60;11.70;;;;;;;9.12;100.00;101488.59;5036479;28;20436;-44
2023/05/02 00:16:53;;;;;;;11.77;10.87;;;;;;;8.89;100.00;101501.75;5035358;28;20784;-43
2023/05/02 00:19:20;;;;;;;12.97;11.90;;;;;;;8.79;100.00;101485.13;5036207;28;20782;-44
2023/05/02 00:21:49;;;;;;;14.63;13.23;;;;;;;8.61;100.00;101486.28;5035850;28;20454;-44
2023/05/02 00:24:17;;;;;;;13.10;11.93;;;;;;;8.56;100.00;101508.06;5037559;28;20436;-42
2023/05/02 00:26:45;;;;;;;12.77;11.67;;;;;;;8.53;100.00;101504.91;5052761;28;21018;-42
2023/05/02 00:29:13;;;;;;;15.00;12.30;;;;;;;8.60;100.00;101501.41;5039814;28;20432;-42
2023/05/02 00:31:41;;;;;;;13.33;11.47;;;;;;;8.51;100.00;101486.44;5035089;28;20475;-49
2023/05/02 00:34:08;;;;;;;13.17;12.20;;;;;;;8.51;100.00;101498.94;5036228;28;20515;-43
2023/05/02 00:36:36;;;;;;;13.03;11.80;;;;;;;8.55;100.00;101505.56;5035822;28;20654;-45
2023/05/02 00:39:05;;;;;;;18.07;12.50;;;;;;;8.54;100.00;101501.25;5036842;28;20439;-44
2023/05/02 00:41:33;;;;;;;15.87;11.40;;;;;;;8.41;100.00;101499.06;5035152;28;20447;-45
2023/05/02 00:44:01;;;;;;;19.80;13.27;;;;;;;8.30;100.00;101504.72;5036009;28;20447;-47
2023/05/02 00:46:29;;;;;;;19.70;13.70;;;;;;;8.23;100.00;101507.16;5036251;28;20436;-47
2023/05/02 00:48:57;;;;;;;18.70;13.03;;;;;;;8.19;100.00;101521.75;5034433;28;20802;-42
2023/05/02 00:51:25;;;;;;;24.00;13.70;;;;;;;8.13;100.00;101522.41;5033821;28;20471;-45
2023/05/02 00:53:52;;;;;;;16.77;13.30;;;;;;;8.17;100.00;101536.19;5037871;28;20432;-48
2023/05/02 00:56:21;;;;;;;14.60;13.00;;;;;;;8.11;100.00;101545.66;5034865;28;20440;-43
2023/05/02 00:58:49;;;;;;;18.13;13.20;;;;;;;8.15;100.00;101541.66;5035933;28;20432;-46
2023/05/02 01:01:32;;;;;;;16.40;11.57;;;;;;;7.95;100.00;101544.72;5036929;28;20490;-43
2023/05/02 01:04:10;;;;;;;24.47;13.27;;;;;;;7.89;100.00;101556.84;5036922;28;20428;-48
2023/05/02 01:06:53;;;;;;;20.77;12.30;;;;;;;7.74;100.00;101558.41;5036903;28;20818;-43
2023/05/02 01:09:30;;;;;;;21.67;13.43;;;;;;;7.60;100.00;101556.34;5035923;28;20986;-48
2023/05/02 01:12:03;;;;;;;30.23;12.40;;;;;;;7.62;100.00;101565.81;5035174;28;20475;-45
2023/05/02 01:14:35;;;;;;;16.17;11.30;;;;;;;7.47;100.00;101571.84;5035392;28;20432;-46
2023/05/02 01:17:07;;;;;;;19.30;13.60;;;;;;;7.36;100.00;101572.97;5037113;28;20428;-47
2023/05/02 01:19:38;;;;;;;19.50;12.23;;;;;;;7.33;100.00;101577.75;5033152;28;20567;-42
2023/05/02 01:22:08;;;;;;;18.43;12.40;;;;;;;7.29;100.00;101581.72;5033626;28;20442;-47
2023/05/02 01:24:42;;;;;;;21.53;13.00;;;;;;;7.11;100.00;101579.91;5038848;28;20436;-44
2023/05/02 01:27:24;;;;;;;18.40;12.87;;;;;;;7.13;100.00;101585.06;5059255;28;20423;-43
2023/05/02 01:29:56;;;;;;;21.83;13.63;;;;;;;7.09;100.00;101595.13;5037975;28;20464;-42
2023/05/02 01:32:26;;;;;;;18.57;12.77;;;;;;;7.06;100.00;101606.06;5038922;28;20503;-42
2023/05/02 01:34:56;;;;;;;23.60;13.67;;;;;;;7.05;100.00;101604.38;5038924;28;20432;-42
2023/05/02 01:37:24;;;;;;;21.97;13.73;;;;;;;7.06;100.00;101606.06;5040147;28;20440;-43
2023/05/02 01:39:54;;;;;;;21.80;12.70;;;;;;;7.10;100.00;101611.91;5038761;28;20456;-45
2023/05/02 01:42:23;;;;;;;18.17;12.33;;;;;;;7.10;100.00;101618.03;5039431;28;20452;-47
2023/05/02 01:44:56;;;;;;;24.43;14.57;;;;;;;7.07;100.00;101621.00;5040360;28;20844;-45
2023/05/02 01:47:25;;;;;;;17.97;12.20;;;;;;;7.03;100.00;101619.63;5040537;28;20440;-46
2023/05/02 01:49:53;;;;;;;25.73;12.80;;;;;;;7.02;100.00;101623.25;5040373;28;20484;-48
2023/05/02 01:52:22;;;;;;;20.40;13.40;;;;;;;6.96;100.00;101625.69;5039980;28;20487;-42
2023/05/02 01:54:51;;;;;;;17.33;13.37;;;;;;;6.99;100.00;101625.41;5037764;28;20783;-43
2023/05/02 01:57:19;;;;;;;14.67;11.30;;;;;;;7.00;100.00;101633.19;5038036;28;20436;-45
2023/05/02 01:59:49;;;;;;;18.60;12.77;;;;;;;6.91;100.00;101620.84;5037946;28;20470;-46
2023/05/02 02:02:19;;;;;;;30.43;12.50;;;;;;;6.86;100.00;101633.72;5038476;28;20470;-43
2023/05/02 02:04:48;;;;;;;18.60;12.77;;;;;;;6.78;100.00;101644.22;5039060;28;20442;-47
2023/05/02 02:07:16;;;;;;;21.47;12.03;;;;;;;6.80;100.00;101641.44;5039902;28;20485;-44
2023/05/02 02:09:44;;;;;;;21.10;12.40;;;;;;;6.82;100.00;101648.25;5039571;28;20467;-42
2023/05/02 02:12:15;;;;;;;14.43;13.17;;;;;;;6.71;100.00;101651.13;5038403;28;20475;-49
2023/05/02 02:14:49;;;;;;;12.33;11.20;;;;;;;6.71;100.00;101666.19;5038470;28;20473;-47
2023/05/02 02:17:26;;;;;;;22.13;13.20;;;;;;;6.64;100.00;101648.22;5037473;28;20440;-43
2023/05/02 02:19:56;;;;;;;14.17;11.50;;;;;;;6.55;100.00;101654.41;5037476;28;20551;-44
2023/05/02 02:22:28;;;;;;;16.50;11.50;;;;;;;6.57;100.00;101656.94;5037806;28;20444;-45
2023/05/02 02:24:57;;;;;;;12.60;11.30;;;;;;;6.58;100.00;101658.59;5040752;28;20438;-45
2023/05/02 02:27:25;;;;;;;13.03;11.60;;;;;;;6.53;100.00;101666.16;5054963;28;20857;-44
2023/05/02 02:29:52;;;;;;;16.87;11.63;;;;;;;6.43;100.00;101671.50;5036689;28;20460;-50
2023/05/02 02:32:21;;;;;;;12.67;11.30;;;;;;;6.44;100.00;101685.59;5037050;28;20484;-43
2023/05/02 02:34:49;;;;;;;15.90;9.93;;;;;;;6.37;100.00;101661.50;5037769;28;20432;-46
2023/05/02 02:37:19;;;;;;;16.10;10.80;;;;;;;6.36;100.00;101681.00;5037947;28;20439;-45
2023/05/02 02:39:55;;;;;;;12.23;10.10;;;;;;;6.22;100.00;101678.84;5037658;28;20467;-45
2023/05/02 02:42:34;;;;;;;14.93;10.53;;;;;;;6.19;100.00;101694.19;5037297;28;20462;-44
2023/05/02 02:45:09;;;;;;;14.27;9.77;;;;;;;6.18;100.00;101692.53;5038527;28;20458;-47
2023/05/02 02:47:43;;;;;;;10.60;9.50;;;;;;;6.16;100.00;101703.25;5037011;28;20432;-43
2023/05/02 02:50:22;;;;;;;15.37;10.33;;;;;;;6.12;100.00;101700.06;5036676;28;20466;-43
2023/05/02 02:52:55;;;;;;;17.93;10.47;;;;;;;6.05;100.00;101704.28;5035762;28;20477;-42
2023/05/02 02:55:40;;;;;;;12.27;11.03;;;;;;;6.01;100.00;101702.88;5037406;28;20438;-42
2023/05/02 02:58:19;;;;;;;19.40;11.13;;;;;;;5.97;100.00;101701.50;5037836;28;20424;-43
2023/05/02 03:00:49;;;;;;;14.93;11.40;;;;;;;5.89;100.00;101709.31;5036715;28;20486;-43
2023/05/02 03:03:20;;;;;;;17.10;10.77;;;;;;;5.91;100.00;101709.19;5035328;28;20435;-42
2023/05/02 03:05:49;;;;;;;16.83;10.87;;;;;;;5.88;100.00;101707.69;5037387;28;20750;-48
2023/05/02 03:08:16;;;;;;;17.60;11.30;;;;;;;5.93;100.00;101716.03;5037957;28;20436;-46
2023/05/02 03:10:44;;;;;;;13.70;11.40;;;;;;;5.91;100.00;101725.09;5037370;28;20463;-43
2023/05/02 03:13:12;;;;;;;12.10;11.00;;;;;;;5.86;100.00;101720.19;5036578;28;20531;-43
2023/05/02 03:16:18;;;;;;;11.00;10.10;;;;;;;5.81;100.00;101729.50;5036968;28;20432;-42
2023/05/02 03:18:47;;;;;;;18.63;10.80;;;;;;;5.85;100.00;101730.91;5031837;28;20436;-42
2023/05/02 03:21:15;;;;;;;18.90;11.37;;;;;;;5.87;100.00;101724.53;5030224;28;20460;-42
2023/05/02 03:23:42;;;;;;;10.47;9.60;;;;;;;5.86;100.00;101728.13;5029903;28;20436;-46
2023/05/02 03:26:10;;;;;;;10.07;9.03;;;;;;;5.85;100.00;101733.56;5044864;28;20435;-42
2023/05/02 03:28:38;;;;;;;11.83;10.00;;;;;;;5.90;100.00;101734.00;5037267;28;20435;-43
2023/05/02 03:31:06;;;;;;;10.77;9.67;;;;;;;5.89;100.00;101735.81;5028959;28;20526;-45
2023/05/02 03:33:33;;;;;;;17.53;10.97;;;;;;;5.89;100.00;101734.97;5029395;28;20492;-42
2023/05/02 03:36:02;;;;;;;13.80;9.10;;;;;;;5.92;100.00;101729.38;5029391;28;20451;-42
2023/05/02 03:38:30;;;;;;;13.43;10.73;;;;;;;5.96;100.00;101736.06;5029272;28;20460;-42
2023/05/02 03:40:58;;;;;;;10.80;9.10;;;;;;;5.99;100.00;101741.09;5028767;28;21015;-42
2023/05/02 03:43:25;;;;;;;12.17;9.17;;;;;;;6.08;100.00;101742.88;5028472;28;20500;-43
2023/05/02 03:45:53;;;;;;;12.70;9.97;;;;;;;6.12;100.00;101741.63;5029077;28;20428;-42
2023/05/02 03:48:21;;;;;;;11.97;10.80;;;;;;;6.15;100.00;101746.63;5028453;28;20432;-43
2023/05/02 03:50:50;;;;;;;12.77;11.67;;;;;;;6.18;100.00;101754.28;5022491;28;20475;-44
2023/05/02 03:53:19;;;;;;;12.40;11.30;;;;;;;6.21;100.00;101753.16;5029123;28;20861;-44
2023/05/02 03:55:47;;;;;;;17.77;10.43;;;;;;;6.19;100.00;101749.81;5028931;28;20432;-42
2023/05/02 03:58:14;;;;;;;15.00;11.10;;;;;;;6.15;100.00;101751.94;5029245;28;20436;-42
2023/05/02 04:00:42;;;;;;;9.87;8.87;;;;;;;6.16;100.00;101758.88;5028415;28;20468;-42
2023/05/02 04:03:10;;;;;;;10.07;8.83;;;;;;;6.26;100.00;101764.16;5029155;28;20479;-45
2023/05/02 04:05:38;;;;;;;13.47;9.80;;;;;;;6.20;100.00;101770.03;5029270;28;20985;-42
2023/05/02 04:08:06;;;;;;;13.80;9.60;;;;;;;6.19;100.00;101763.03;5029640;28;20443;-42
2023/05/02 04:10:35;;;;;;;19.00;10.33;;;;;;;6.31;100.00;101775.16;5028757;28;20448;-47
2023/05/02 04:13:03;;;;;;;17.90;9.83;;;;;;;6.33;100.00;101771.38;5028258;28;20464;-44
2023/05/02 04:15:31;;;;;;;13.00;11.17;;;;;;;6.41;100.00;101774.16;5028846;28;20988;-43
2023/05/02 04:17:59;;;;;;;11.77;10.03;;;;;;;6.42;100.00;101778.44;5029729;28;20813;-43
2023/05/02 04:20:27;;;;;;;14.63;9.97;;;;;;;6.48;100.00;101777.88;5027933;28;20929;-43
2023/05/02 04:22:54;;;;;;;11.93;9.90;;;;;;;6.40;100.00;101791.00;5028670;28;20648;-42
2023/05/02 04:25:22;;;;;;;9.10;8.13;;;;;;;6.44;100.00;101778.31;5035691;28;20497;-43
2023/05/02 04:27:51;;;;;;;11.43;8.40;;;;;;;6.51;100.00;101784.72;5043118;28;20432;-42
2023/05/02 04:30:19;;;;;;;10.37;9.20;;;;;;;6.48;100.00;101782.38;5028413;28;20441;-44
2023/05/02 04:32:47;;;;;;;9.17;8.13;;;;;;;6.50;100.00;101793.66;5028390;28;20472;-45
2023/05/02 04:35:15;;;;;;;12.53;7.50;;;;;;;6.48;100.00;101785.81;5028800;28;20435;-45
2023/05/02 04:37:43;;;;;;;13.20;8.47;;;;;;;6.49;100.00;101791.97;5028292;28;20432;-43
2023/05/02 04:40:12;;;;;;;14.03;8.53;;;;;;;6.51;100.00;101787.38;5027773;28;20428;-45
2023/05/02 04:42:40;;;;;;;8.87;8.23;;;;;;;6.58;100.00;101793.75;5028009;28;20841;-44
2023/05/02 04:45:09;;;;;;;8.70;8.20;;;;;;;6.60;100.00;101795.25;5028254;28;20436;-43
2023/05/02 04:47:37;;;;;;;8.70;7.80;;;;;;;6.58;100.00;101801.69;5027622;28;20432;-44
2023/05/02 04:50:06;;;;;;;8.50;7.80;;;;;;;6.67;100.00;101814.91;5025997;28;20814;-42
2023/05/02 04:52:33;;;;;;;10.03;7.63;;;;;;;6.74;100.00;101812.53;5028098;28;20498;-46
2023/05/02 04:55:01;;;;;;;7.50;6.80;;;;;;;6.75;100.00;101805.41;5027944;28;20506;-42
2023/05/02 04:57:28;;;;;;;11.20;7.50;;;;;;;6.83;100.00;101813.47;5028202;28;20506;-46
2023/05/02 04:59:56;;;;;;;8.00;6.70;;;;;;;6.82;100.00;101820.56;5028341;28;20428;-44
2023/05/02 05:02:25;;;;;;;7.13;6.30;;;;;;;6.82;100.00;101825.88;5027095;28;20838;-43
2023/05/02 05:04:53;;;;;;;9.30;7.20;;;;;;;6.80;100.00;101829.66;5028714;28;20432;-42
2023/05/02 05:07:21;;;;;;;7.30;6.60;;;;;;;6.76;100.00;101831.75;5028374;28;20444;-42
2023/05/02 05:09:49;;;;;;;7.77;7.03;;;;;;;6.82;100.00;101849.75;5029031;28;20841;-45
2023/05/02 05:12:19;;;;;;;12.90;7.93;;;;;;;6.84;100.00;101847.78;5027605;28;20626;-46
2023/05/02 05:14:48;;;;;;;11.03;7.13;;;;;;;6.83;100.00;101850.59;5028027;28;20795;-47
2023/05/02 05:17:17;;;;;;;8.00;6.30;;;;;;;6.69;100.00;101857.16;5028290;28;20432;-43
2023/05/02 05:19:46;;;;;;;9.80;6.20;;;;;;;6.82;100.00;101854.22;5028155;28;20439;-45
2023/05/02 05:22:14;;;;;;;13.33;6.67;;;;;;;6.82;100.00;101856.84;5025597;28;20555;-44
2023/05/02 05:24:41;;;;;;;6.60;5.90;;;;;;;6.85;100.00;101865.34;5029516;28;20435;-42
2023/05/02 05:27:10;;;;;;;9.57;7.60;;;;;;;6.93;100.00;101867.31;5047865;28;20431;-43
2023/05/02 05:29:37;;;;;;;8.57;6.30;;;;;;;6.96;100.00;101877.63;5028060;28;20442;-47
2023/05/02 05:32:05;;;;;;;8.57;6.87;;;;;;;6.96;100.00;101873.13;5022132;28;20472;-44
2023/05/02 05:34:33;;;;;;;6.00;5.50;;;;;;;6.95;100.00;101874.13;5028608;28;20518;-43
2023/05/02 05:37:02;;;;;;;8.37;6.37;;;;;;;6.98;100.00;101876.50;5030213;28;20428;-43
2023/05/02 05:39:30;;;;;;;7.80;6.23;;;;;;;7.03;100.00;101884.00;5028157;28;20954;-43
2023/05/02 05:41:59;;;;;;;8.50;6.40;;;;;;;7.00;100.00;101893.09;5027755;28;20830;-43
2023/05/02 05:44:27;;;;;;;7.20;6.00;;;;;;;7.02;100.00;101890.28;5028092;28;20428;-44
2023/05/02 05:46:54;;;;;;;6.20;5.60;;;;;;;7.04;100.00;101889.16;5028141;28;20525;-43
2023/05/02 05:49:23;;;;;;;9.53;6.17;;;;;;;7.02;100.00;101896.41;5027778;28;20440;-43
2023/05/02 05:51:51;;;;;;;8.40;6.37;;;;;;;7.11;100.00;101900.00;5027723;28;20502;-42
2023/05/02 05:54:20;;;;;;;7.63;5.43;;;;;;;7.10;100.00;101898.34;5027969;28;20471;-48
2023/05/02 05:56:47;;;;;;;13.63;6.23;;;;;;;7.12;100.00;101909.66;5027876;28;20442;-43
2023/05/02 05:59:15;;;;;;;10.40;6.07;;;;;;;7.15;100.00;101896.09;5027916;28;20440;-43
2023/05/02 06:01:43;;;;;;;10.83;5.57;;;;;;;7.04;100.00;101915.69;5025839;28;20973;-43
2023/05/02 06:04:10;;;;;;;11.07;6.90;;;;;;;7.14;100.00;101924.44;5027684;28;21004;-44
2023/05/02 06:06:38;;;;;;;7.40;5.23;;;;;;;7.24;100.00;101927.06;5027732;28;20424;-44
2023/05/02 06:09:06;;;;;;;11.73;5.70;;;;;;;7.34;100.00;101914.59;5027560;28;20428;-46
2023/05/02 06:11:36;;;;;;;5.77;5.10;;;;;;;7.31;100.00;101922.00;5030962;28;20464;-44
2023/05/02 06:14:04;;;;;;;5.60;5.20;;;;;;;7.35;100.00;101928.69;5031724;28;20871;-46
2023/05/02 06:16:32;;;;;;;7.87;5.03;;;;;;;7.41;100.00;101933.38;5031679;28;20432;-43
2023/05/02 06:18:59;;;;;;;10.33;5.77;;;;;;;7.51;100.00;101928.88;5031008;28;20436;-43
2023/05/02 06:21:27;;;;;;;5.73;5.10;;;;;;;7.60;100.00;101933.31;5030495;28;20888;-44
2023/05/02 06:23:55;;;;;;;6.57;6.00;;;;;;;7.57;100.00;101937.09;5030931;28;20550;-43
2023/05/02 06:26:22;;;;;;;6.50;5.23;;;;;;;7.58;100.00;101946.75;5046187;28;20446;-44
2023/05/02 06:28:51;;;;;;;10.60;6.50;;;;;;;7.73;100.00;101939.94;5037938;28;20436;-42
2023/05/02 06:31:19;;;;;;;12.23;6.20;;;;;;;7.94;100.00;101949.44;5028516;28;20495;-47
2023/05/02 06:33:47;;;;;;;7.93;5.87;;;;;;;8.17;100.00;101946.19;5031362;28;20479;-46
2023/05/02 06:36:15;;;;;;;5.83;5.47;;;;;;;8.20;100.00;101947.72;5031097;28;20506;-45
2023/05/02 06:38:42;;;;;;;5.20;4.90;;;;;;;8.31;100.00;101951.00;5030827;28;20458;-46
2023/05/02 06:41:13;;;;;;;11.03;4.70;;;;;;;8.53;100.00;101960.34;5030679;28;20462;-44
2023/05/02 06:43:44;;;;;;;9.03;5.37;;;;;;;8.54;100.00;101947.88;5030274;28;20980;-45
2023/05/02 06:46:14;;;;;;;12.53;5.60;;;;;;;8.77;99.54;101965.84;5031125;28;20830;-46
2023/05/02 06:48:41;;;;;;;5.93;5.37;;;;;;;8.94;94.88;101960.63;5030420;28;20921;-43
2023/05/02 06:51:09;;;;;;;11.37;5.90;;;;;;;8.60;98.16;101961.38;5029996;28;20463;-43
2023/05/02 06:53:37;;;;;;;12.73;5.70;;;;;;;8.61;94.65;101972.84;5030355;28;20525;-46
2023/05/02 06:56:05;;;;;;;6.50;5.27;;;;;;;8.67;97.48;101978.41;5030539;28;20583;-43
2023/05/02 06:58:33;;;;;;;5.50;5.03;;;;;;;8.64;97.22;101977.88;5030309;28;20432;-45
2023/05/02 07:01:01;;;;;;;5.40;4.90;;;;;;;8.55;94.21;101970.81;5029150;28;20452;-44
2023/05/02 07:03:30;;;;;;;5.33;4.80;;;;;;;8.60;98.96;101982.66;5029997;28;20845;-45
2023/05/02 07:05:57;;;;;;;5.63;4.53;;;;;;;8.65;98.42;101991.03;5031051;28;20440;-44
2023/05/02 07:08:25;;;;;;;7.93;4.93;;;;;;;9.29;89.43;102000.44;5030178;28;20515;-45
2023/05/02 07:10:53;;;;;;;5.53;4.80;;;;;;;9.11;93.07;101999.69;5030114;28;20799;-44
2023/05/02 07:13:20;;;;;;;7.77;4.87;;;;;;;8.83;87.15;102002.47;5029894;28;20435;-44
2023/05/02 07:15:48;;;;;;;5.10;4.37;;;;;;;9.23;90.48;102011.69;5030497;28;20442;-44
2023/05/02 07:18:16;;;;;;;5.30;4.53;;;;;;;8.98;87.03;102007.22;5030543;28;20961;-43
2023/05/02 07:20:46;;;;;;;5.10;4.53;;;;;;;9.03;94.71;101999.59;5029680;28;20525;-43
2023/05/02 07:23:13;;;;;;;6.73;4.27;;;;;;;9.12;96.03;102011.97;5010874;28;20441;-42
2023/05/02 07:25:41;;;;;;;5.77;4.53;;;;;;;9.02;87.79;102022.72;5020782;28;20843;-43
2023/05/02 07:28:09;;;;;;;9.97;4.53;;;;;;;9.04;88.90;102026.06;5021899;28;20440;-43
2023/05/02 07:30:37;;;;;;;7.47;5.17;;;;;;;9.24;92.49;102022.22;5011285;28;20456;-44
2023/05/02 07:33:05;;;;;;;7.40;4.30;;;;;;;9.47;89.07;102024.34;5007841;28;20468;-42
2023/05/02 07:35:32;;;;;;;5.83;5.17;;;;;;;9.53;86.54;102026.38;5009631;28;20505;-43
2023/05/02 07:38:01;;;;;;;4.90;4.50;;;;;;;9.39;92.94;102028.63;5010136;28;20544;-42
2023/05/02 07:40:29;;;;;;;4.60;4.20;;;;;;;9.21;88.67;102027.84;5010506;28;20433;-43
2023/05/02 07:43:00;;;;;;;4.90;4.40;;;;;;;9.18;92.03;102043.28;5009194;28;20461;-45
2023/05/02 07:45:28;;;;;;;4.97;4.50;;;;;;;9.28;92.17;102046.69;5009884;28;20433;-42
2023/05/02 07:47:56;;;;;;;5.20;4.57;;;;;;;9.31;88.83;102044.56;5009853;28;20436;-43
2023/05/02 07:50:24;;;;;;;6.97;4.60;;;;;;;9.34;88.27;102048.72;5009757;28;20449;-45
2023/05/02 07:52:52;;;;;;;5.80;5.23;;;;;;;9.57;89.86;102039.22;5009032;28;20473;-42
2023/05/02 07:55:22;;;;;;;7.10;5.10;;;;;;;9.67;87.40;102042.59;5009930;28;20863;-43
2023/05/02 07:57:49;;;;;;;7.97;6.10;;;;;;;9.73;88.63;102052.63;5009462;28;20440;-44
2023/05/02 08:00:18;;;;;;;7.00;4.87;;;;;;;9.84;86.09;102054.16;5009075;28;20436;-43
2023/05/02 08:02:45;;;;;;;5.83;4.73;;;;;;;9.86;92.61;102058.31;5007275;28;20685;-44
2023/05/02 08:05:13;;;;;;;6.00;4.90;;;;;;;9.86;87.16;102058.31;5010058;28;20520;-42
2023/05/02 08:07:41;;;;;;;7.30;5.23;;;;;;;9.82;84.03;102050.81;5009330;28;20433;-43
2023/05/02 08:10:10;;;;;;;5.33;4.43;;;;;;;9.85;82.35;102059.34;5009555;28;20768;-44
2023/05/02 08:12:40;;;;;;;10.10;4.73;;;;;;;9.99;86.99;102061.38;5008886;28;20468;-45
2023/05/02 08:15:10;;;;;;;7.13;4.93;;;;;;;9.90;79.44;102062.34;5010500;28;20535;-48
2023/05/02 08:17:37;;;;;;;8.60;4.70;;;;;;;9.78;78.63;102070.78;5010417;28;20413;-43
2023/05/02 08:20:06;;;;;;;5.10;4.57;;;;;;;9.96;75.94;102048.38;5009597;28;20451;-43
2023/05/02 08:22:34;;;;;;;5.93;4.50;;;;;;;10.05;77.41;102070.56;5010034;28;20536;-44
2023/05/02 08:25:02;;;;;;;6.30;4.63;;;;;;;10.34;76.94;102078.19;5012994;28;20434;-43
2023/05/02 08:27:29;;;;;;;7.00;5.20;;;;;;;10.13;79.25;102067.97;5026473;28;20447;-43
2023/05/02 08:29:58;;;;;;;6.13;5.00;;;;;;;10.14;83.62;102079.47;5010040;28;20464;-43
2023/05/02 08:32:28;;;;;;;9.20;5.10;;;;;;;10.19;84.23;102079.78;5007505;28;20461;-44
2023/05/02 08:34:56;;;;;;;8.60;4.53;;;;;;;9.96;78.88;102088.34;5010182;28;20469;-43
2023/05/02 08:37:24;;;;;;;8.47;5.07;;;;;;;10.40;76.08;102086.38;5009142;28;20432;-44
2023/05/02 08:39:52;;;;;;;9.63;4.90;;;;;;;10.21;77.57;102107.16;5008823;28;20436;-43
2023/05/02 08:42:20;;;;;;;8.47;4.97;;;;;;;10.24;83.30;102101.50;5007755;28;21042;-45
2023/05/02 08:44:48;;;;;;;5.30;4.83;;;;;;;9.90;83.78;102107.66;5009701;28;20937;-45
2023/05/02 08:47:20;;;;;;;7.60;5.50;;;;;;;9.98;85.67;102110.34;5008753;28;21049;-48
2023/05/02 08:49:49;;;;;;;11.27;4.80;;;;;;;10.07;80.88;102105.88;5008598;28;20445;-47
2023/05/02 08:52:20;;;;;;;7.20;4.63;;;;;;;9.99;85.55;102108.53;5007854;28;20551;-44
2023/05/02 08:54:50;;;;;;;10.37;5.20;;;;;;;10.17;91.86;102119.97;5010980;28;20477;-43
2023/05/02 08:57:18;;;;;;;10.27;5.07;;;;;;;10.31;93.28;102121.16;5008576;28;20459;-46
2023/05/02 08:59:45;;;;;;;11.43;5.73;;;;;;;10.28;90.58;102130.31;5008557;28;20437;-47
2023/05/02 09:02:23;;;;;;;11.60;5.50;;;;;;;10.10;86.13;102123.38;5007847;28;20476;-43
2023/05/02 09:04:55;;;;;;;5.43;5.00;;;;;;;9.98;90.63;102131.66;5008228;28;20421;-47
2023/05/02 09:07:22;;;;;;;4.93;4.40;;;;;;;10.11;82.70;102136.56;5009260;28;20722;-49
2023/05/02 09:09:50;;;;;;;8.93;5.20;;;;;;;10.12;92.20;102135.56;5008835;28;20440;-46
2023/05/02 09:12:25;;;;;;;8.50;4.47;;;;;;;10.21;93.06;102134.66;5007665;28;20481;-43
2023/05/02 09:15:11;;;;;;;7.30;4.83;;;;;;;9.97;81.74;102148.63;5009718;28;20474;-43
2023/05/02 09:17:42;;;;;;;5.23;4.63;;;;;;;10.12;88.96;102158.72;5009159;28;20436;-47
2023/05/02 09:20:11;;;;;;;10.20;5.37;;;;;;;10.07;88.14;102156.53;5008440;28;20433;-48
2023/05/02 09:22:39;;;;;;;6.20;5.20;;;;;;;10.01;93.98;102151.81;5008064;28;20467;-41
2023/05/02 09:25:07;;;;;;;9.10;5.27;;;;;;;10.25;91.28;102153.81;5013467;28;20524;-46
2023/05/02 09:27:53;;;;;;;6.90;5.00;;;;;;;10.06;87.46;102157.53;5024834;28;20436;-45
2023/05/02 09:30:22;;;;;;;7.33;4.60;;;;;;;9.94;94.17;102172.13;5008876;28;20469;-46
2023/05/02 09:32:54;;;;;;;9.53;5.60;;;;;;;9.88;85.16;102170.09;5007973;28;20820;-48
2023/05/02 09:35:25;;;;;;;9.67;4.83;;;;;;;9.68;89.48;102166.78;5008818;28;20472;-46
2023/05/02 09:37:54;;;;;;;5.13;4.63;;;;;;;9.79;81.25;102160.38;5008267;28;20892;-42
2023/05/02 09:40:23;;;;;;;5.30;4.37;;;;;;;10.32;80.51;102158.34;5009252;28;20435;-45
2023/05/02 09:42:51;;;;;;;6.73;4.80;;;;;;;10.40;71.94;102165.53;5007481;28;20475;-48
2023/05/02 09:45:23;;;;;;;5.30;4.10;;;;;;;10.79;72.88;102161.31;5012345;28;20981;-49
2023/05/02 09:47:53;;;;;;;7.30;4.23;;;;;;;10.94;73.24;102157.03;5012477;28;20432;-44
2023/05/02 09:50:33;;;;;;;6.30;4.40;;;;;;;10.42;70.76;102171.56;5012300;28;20798;-49
2023/05/02 09:53:03;;;;;;;7.40;4.63;;;;;;;10.30;80.71;102184.34;5011156;28;20540;-43
2023/05/02 09:55:31;;;;;;;8.13;5.40;;;;;;;10.68;73.30;102177.66;5011802;28;20559;-51
2023/05/02 09:57:59;;;;;;;6.83;5.20;;;;;;;11.29;69.89;102171.88;5011669;28;20433;-46
2023/05/02 10:00:41;;;;;;;4.53;4.20;;;;;;;11.46;67.33;102186.09;5011773;28;21082;-47
2023/05/02 10:03:10;;;;;;;5.43;4.60;;;;;;;11.68;64.45;102168.56;5010065;28;20469;-45
2023/05/02 10:05:39;;;;;;;7.40;4.63;;;;;;;11.70;66.30;102164.75;5011850;28;20425;-44
2023/05/02 10:08:09;;;;;;;6.50;5.23;;;;;;;12.54;67.55;102166.81;5012127;28;20441;-44
2023/05/02 10:10:38;;;;;;;9.97;5.27;;;;;;;12.36;63.46;102174.25;5011642;28;20858;-44
2023/05/02 10:13:08;;;;;;;6.87;4.60;;;;;;;11.62;63.76;102184.25;5010978;28;20523;-43
2023/05/02 10:15:42;;;;;;;4.87;4.47;;;;;;;11.57;60.89;102173.22;5011716;28;20472;-46
2023/05/02 10:18:15;;;;;;;8.53;5.20;;;;;;;11.66;62.80;102190.09;5011775;28;20974;-42
2023/05/02 10:20:47;;;;;;;6.03;5.03;;;;;;;11.96;61.37;102183.22;5011379;28;20456;-42
2023/05/02 10:23:17;;;;;;;5.17;4.70;;;;;;;11.85;63.64;102175.56;5010842;28;20441;-45
2023/05/02 10:25:45;;;;;;;8.73;5.07;;;;;;;11.46;61.16;102184.28;5021140;28;20521;-44
2023/05/02 10:28:14;;;;;;;7.03;4.33;;;;;;;11.23;63.26;102191.25;5023299;28;20433;-44
2023/05/02 10:30:43;;;;;;;5.17;4.57;;;;;;;10.96;75.38;102200.38;5011396;28;20474;-48
2023/05/02 10:33:16;;;;;;;4.87;4.37;;;;;;;10.88;75.21;102207.53;5009744;28;20460;-43
2023/05/02 10:35:45;;;;;;;14.07;5.07;;;;;;;11.20;70.07;102209.47;5011189;28;20523;-47
2023/05/02 10:38:16;;;;;;;11.27;5.10;;;;;;;11.46;68.65;102199.47;5011280;28;20441;-46
2023/05/02 10:40:54;;;;;;;7.47;4.97;;;;;;;11.24;73.26;102219.63;5011686;28;20456;-45
2023/05/02 10:43:25;;;;;;;8.30;4.70;;;;;;;10.96;73.32;102218.25;5011167;28;20440;-45
2023/05/02 10:45:54;;;;;;;8.37;5.50;;;;;;;10.95;78.52;102224.59;5011218;28;20520;-43
2023/05/02 10:48:25;;;;;;;7.47;4.83;;;;;;;11.42;77.73;102219.47;5010754;28;20433;-40
2023/05/02 10:50:54;;;;;;;7.00;4.60;;;;;;;11.68;76.43;102222.00;5010192;28;20540;-48
2023/05/02 10:53:24;;;;;;;10.30;4.97;;;;;;;11.99;70.07;102223.00;5011145;28;20433;-46
2023/05/02 10:56:12;;;;;;;7.37;5.20;;;;;;;12.32;64.10;102218.41;5010947;28;20497;-47
2023/05/02 10:58:41;;;;;;;6.63;5.50;;;;;;;11.91;62.66;102233.69;5010726;28;20512;-42
2023/05/02 11:01:41;;;;;;;5.70;4.47;;;;;;;11.67;67.72;102229.19;5008802;28;21336;-45
2023/05/02 11:04:10;;;;;;;9.90;5.27;;;;;;;12.45;66.28;102216.03;5010792;28;20702;-47
2023/05/02 11:07:11;;;;;;;6.03;4.93;;;;;;;12.66;57.45;102226.97;5010862;28;20429;-41
2023/05/02 11:09:39;;;;;;;5.00;3.80;;;;;;;12.03;61.97;102227.84;5010483;28;21053;-42
2023/05/02 11:12:07;;;;;;;9.60;4.37;;;;;;;11.61;63.60;102236.03;5009648;28;21038;-43
2023/05/02 11:14:47;;;;;;;7.53;4.57;;;;;;;11.74;62.05;102237.41;5010378;28;20433;-43
2023/05/02 11:17:15;;;;;;;8.27;4.67;;;;;;;12.75;64.88;102228.59;5011053;28;20472;-48
2023/05/02 11:20:28;;;;;;;4.77;4.07;;;;;;;13.67;56.48;102236.56;5010207;28;20800;-42
2023/05/02 11:22:59;;;;;;;4.80;4.30;;;;;;;12.21;65.54;102243.69;5009973;28;20468;-48
2023/05/02 11:25:35;;;;;;;6.47;4.60;;;;;;;11.97;69.13;102241.88;5017730;28;20442;-46
2023/05/02 11:28:06;;;;;;;5.70;4.20;;;;;;;11.79;69.06;102246.59;5024049;28;20429;-48
2023/05/02 11:30:38;;;;;;;4.57;4.20;;;;;;;11.78;66.70;102250.25;5010819;28;21076;-44
2023/05/02 11:33:18;;;;;;;9.57;4.37;;;;;;;11.66;69.32;102249.72;5003197;28;20457;-45